Time;durP1;ratioP1;P1;durP2;ratioP2;P2;SDS_P1;SDS_P2;PMS_P1;PMS_P2;Temp;Humidity;BMP_temperature;BMP_pressure;BME280_temperature;BME280_humidity;BME280_pressure;Samples;Min_cycle;Max_cycle;Signal;HPM_P1;HPM_P2
2021/10/18 05:52:13;;;;;;;0.90;0.63;;;;;;;;;;7381050;19;20092;-59
2021/10/18 05:54:40;;;;;;;0.52;0.50;;;;;;;;;;7426179;19;20481;-60
2021/10/18 05:57:19;;;;;;;0.75;0.75;;;;;;;;;;7403042;19;20006;-60
2021/10/18 05:59:46;;;;;;;0.88;0.60;;;;;;;;;;7425307;19;20495;-59
2021/10/18 06:02:14;;;;;;;0.50;0.50;;;;;;;;;;7426592;19;20014;-59
2021/10/18 06:04:46;;;;;;;0.50;0.50;;;;;;;;;;7424653;19;20092;-60
2021/10/18 06:07:14;;;;;;;0.60;0.60;;;;;;;;;;7426455;19;20014;-60
2021/10/18 06:09:41;;;;;;;0.80;0.57;;;;;;;;;;7426215;19;20010;-59
2021/10/18 06:12:09;;;;;;;0.38;0.32;;;;;;;;;;7423738;19;20010;-59
2021/10/18 06:14:36;;;;;;;0.50;0.40;;;;;;;;;;7426945;19;20011;-59
2021/10/18 06:17:04;;;;;;;8.00;2.63;;;;;;;;;;7425666;19;20032;-59
2021/10/18 06:19:32;;;;;;;0.80;0.70;;;;;;;;;;7426047;19;20039;-59
2021/10/18 06:22:01;;;;;;;2.92;0.52;;;;;;;;;;7424658;19;20026;-59
2021/10/18 06:24:29;;;;;;;0.50;0.50;;;;;;;;;;7425845;19;20010;-59
2021/10/18 06:26:56;;;;;;;1.85;0.52;;;;;;;;;;7426110;19;20045;-59
2021/10/18 06:29:26;;;;;;;0.45;0.45;;;;;;;;;;7424974;19;20010;-59
2021/10/18 06:31:53;;;;;;;0.47;0.47;;;;;;;;;;7423004;19;20013;-58
2021/10/18 06:34:21;;;;;;;0.35;0.35;;;;;;;;;;7425079;19;20010;-58
2021/10/18 06:36:48;;;;;;;1.70;0.40;;;;;;;;;;7423730;19;20498;-59
2021/10/18 06:39:15;;;;;;;41.33;18.95;;;;;;;;;;7425141;19;20023;-59
2021/10/18 06:41:43;;;;;;;1.88;0.85;;;;;;;;;;7425380;19;20010;-59
2021/10/18 06:44:10;;;;;;;0.60;0.57;;;;;;;;;;7425574;19;20006;-58
2021/10/18 06:46:37;;;;;;;0.75;0.63;;;;;;;;;;7425625;19;20356;-58
2021/10/18 06:49:05;;;;;;;0.60;0.50;;;;;;;;;;7425478;19;20011;-59
2021/10/18 06:51:36;;;;;;;0.52;0.32;;;;;;;;;;7422728;19;20526;-59
2021/10/18 06:54:04;;;;;;;0.47;0.47;;;;;;;;;;7425097;19;20018;-59
2021/10/18 06:56:32;;;;;;;0.52;0.40;;;;;;;;;;7425426;19;20018;-59
2021/10/18 06:58:59;;;;;;;0.50;0.50;;;;;;;;;;7424755;19;20373;-60
2021/10/18 07:01:26;;;;;;;0.35;0.35;;;;;;;;;;7420872;19;20014;-60
2021/10/18 07:03:54;;;;;;;0.35;0.35;;;;;;;;;;7394758;19;20031;-59
2021/10/18 07:06:21;;;;;;;0.50;0.50;;;;;;;;;;7395793;19;20501;-59
2021/10/18 07:08:49;;;;;;;0.30;0.30;;;;;;;;;;7396183;19;20019;-60
2021/10/18 07:11:16;;;;;;;0.30;0.30;;;;;;;;;;7398353;19;20255;-57
2021/10/18 07:13:43;;;;;;;0.50;0.50;;;;;;;;;;7395686;19;20011;-59
2021/10/18 07:16:10;;;;;;;0.50;0.50;;;;;;;;;;7395663;19;20010;-59
2021/10/18 07:18:38;;;;;;;0.60;0.50;;;;;;;;;;7396057;19;20033;-53
2021/10/18 07:21:05;;;;;;;4.40;1.58;;;;;;;;;;7396172;19;20025;-60
2021/10/18 07:23:33;;;;;;;1.25;0.65;;;;;;;;;;7394990;19;20014;-59
2021/10/18 07:26:03;;;;;;;0.80;0.52;;;;;;;;;;7393442;19;20025;-60
2021/10/18 07:28:31;;;;;;;0.35;0.35;;;;;;;;;;7394789;19;20014;-59
2021/10/18 07:31:00;;;;;;;0.55;0.55;;;;;;;;;;7393890;19;20011;-60
2021/10/18 07:33:27;;;;;;;0.40;0.40;;;;;;;;;;7395053;19;20340;-59
2021/10/18 07:35:56;;;;;;;0.50;0.50;;;;;;;;;;7393879;19;20525;-59
2021/10/18 07:38:24;;;;;;;0.40;0.40;;;;;;;;;;7397206;19;20102;-59
2021/10/18 07:40:52;;;;;;;0.50;0.50;;;;;;;;;;7394479;19;20014;-60
2021/10/18 07:43:19;;;;;;;0.50;0.50;;;;;;;;;;7394846;19;20340;-59
2021/10/18 07:45:47;;;;;;;0.30;0.30;;;;;;;;;;7393790;19;20090;-59
2021/10/18 07:48:14;;;;;;;129.05;48.55;;;;;;;;;;7394848;19;20031;-59
2021/10/18 07:50:41;;;;;;;9.32;3.80;;;;;;;;;;7393258;19;20022;-59
2021/10/18 07:53:09;;;;;;;0.90;0.43;;;;;;;;;;7394856;19;20002;-58
2021/10/18 07:55:37;;;;;;;0.60;0.50;;;;;;;;;;7394486;19;20013;-59
2021/10/18 07:58:18;;;;;;;0.40;0.40;;;;;;;;;;7392110;19;20021;-59
2021/10/18 08:00:46;;;;;;;0.43;0.43;;;;;;;;;;7394104;19;20017;-59
2021/10/18 08:03:14;;;;;;;0.38;0.38;;;;;;;;;;7393946;19;20553;-59
2021/10/18 08:05:41;;;;;;;0.40;0.40;;;;;;;;;;7396548;19;20007;-59
2021/10/18 08:08:10;;;;;;;0.50;0.50;;;;;;;;;;7394242;19;20047;-59
2021/10/18 08:10:38;;;;;;;0.50;0.50;;;;;;;;;;7393836;19;20029;-59
2021/10/18 08:13:06;;;;;;;0.30;0.30;;;;;;;;;;7393740;19;20010;-59
2021/10/18 08:15:35;;;;;;;0.45;0.45;;;;;;;;;;7391326;19;20482;-59
2021/10/18 08:18:02;;;;;;;0.40;0.40;;;;;;;;;;7393322;19;20014;-59
2021/10/18 08:20:30;;;;;;;0.38;0.38;;;;;;;;;;7393207;19;20014;-59
2021/10/18 08:22:58;;;;;;;0.20;0.20;;;;;;;;;;7392759;19;20499;-58
2021/10/18 08:25:25;;;;;;;0.40;0.40;;;;;;;;;;7397245;19;20494;-57
2021/10/18 08:27:52;;;;;;;1.55;0.43;;;;;;;;;;7393198;19;20367;-59
2021/10/18 08:30:20;;;;;;;0.47;0.47;;;;;;;;;;7392590;19;20595;-59
2021/10/18 08:32:47;;;;;;;0.40;0.40;;;;;;;;;;7391133;19;20055;-58
2021/10/18 08:35:15;;;;;;;0.63;0.30;;;;;;;;;;7392716;19;20028;-59
2021/10/18 08:40:34;;;;;;;0.40;0.40;;;;;;;;;;7392585;19;20023;-58
2021/10/18 08:45:45;;;;;;;107.63;37.70;;;;;;;;;;7392435;19;20029;-57
2021/10/18 08:48:13;;;;;;;4.25;2.17;;;;;;;;;;7391955;19;20014;-58
2021/10/18 08:50:41;;;;;;;0.65;0.50;;;;;;;;;;7391412;19;20014;-60
2021/10/18 08:53:08;;;;;;;0.40;0.40;;;;;;;;;;7392230;19;20011;-59
2021/10/18 08:55:37;;;;;;;0.40;0.40;;;;;;;;;;7392935;19;20030;-59
2021/10/18 08:58:08;;;;;;;0.40;0.40;;;;;;;;;;7392099;19;20034;-58
2021/10/18 09:00:37;;;;;;;0.40;0.40;;;;;;;;;;7390244;19;20369;-59
2021/10/18 09:03:32;;;;;;;0.30;0.30;;;;;;;;;;7391462;19;20014;-60
2021/10/18 09:06:09;;;;;;;0.45;0.40;;;;;;;;;;7390531;19;20014;-59
2021/10/18 09:08:43;;;;;;;0.35;0.35;;;;;;;;;;7392335;19;20010;-58
2021/10/18 09:11:13;;;;;;;0.28;0.28;;;;;;;;;;7391424;19;20014;-57
2021/10/18 09:13:52;;;;;;;0.35;0.32;;;;;;;;;;7391809;19;20084;-59
2021/10/18 09:16:30;;;;;;;0.50;0.40;;;;;;;;;;7392267;19;20010;-58
2021/10/18 09:19:12;;;;;;;1.17;0.85;;;;;;;;;;7389732;19;20494;-56
2021/10/18 09:21:44;;;;;;;0.40;0.32;;;;;;;;;;7391806;19;20032;-58
2021/10/18 09:24:31;;;;;;;0.30;0.30;;;;;;;;;;7389129;19;20373;-59
2021/10/18 09:27:18;;;;;;;0.57;0.47;;;;;;;;;;7389954;19;20025;-58
2021/10/18 09:29:51;;;;;;;0.50;0.50;;;;;;;;;;7390945;19;20014;-59
2021/10/18 09:32:28;;;;;;;0.70;0.40;;;;;;;;;;7390165;19;20014;-57
2021/10/18 09:35:10;;;;;;;1.08;0.50;;;;;;;;;;7390765;19;20482;-59
2021/10/18 09:37:43;;;;;;;1.05;0.40;;;;;;;;;;7391893;19;20083;-59
2021/10/18 09:40:32;;;;;;;0.60;0.47;;;;;;;;;;7390751;19;20014;-59
2021/10/18 09:43:14;;;;;;;0.40;0.30;;;;;;;;;;7390715;19;20011;-58
2021/10/18 09:46:06;;;;;;;0.40;0.40;;;;;;;;;;7390223;19;20494;-52
2021/10/18 10:53:48;;;;;;;0.50;0.50;;;;;;;;;;7391816;19;20010;-59
2021/10/18 10:56:45;;;;;;;0.38;0.38;;;;;;;;;;7398111;19;20024;-58
2021/10/18 10:59:24;;;;;;;0.40;0.40;;;;;;;;;;7395311;19;20073;-59
2021/10/18 11:01:54;;;;;;;0.40;0.40;;;;;;;;;;7390907;19;20035;-59
2021/10/18 11:04:31;;;;;;;0.65;0.50;;;;;;;;;;7390514;19;20010;-59
2021/10/18 11:07:20;;;;;;;0.30;0.30;;;;;;;;;;7392256;19;20086;-59
2021/10/18 11:09:49;;;;;;;0.45;0.40;;;;;;;;;;7391638;19;20017;-59
2021/10/18 11:12:21;;;;;;;0.40;0.40;;;;;;;;;;7390334;19;20015;-60
2021/10/18 11:15:06;;;;;;;0.50;0.30;;;;;;;;;;7392292;19;20014;-59
2021/10/18 11:17:46;;;;;;;0.30;0.30;;;;;;;;;;7392037;19;20340;-59
2021/10/18 11:20:16;;;;;;;25.38;10.65;;;;;;;;;;7391424;19;20006;-58
2021/10/18 11:22:51;;;;;;;4.28;2.47;;;;;;;;;;7392008;19;20045;-59
2021/10/18 11:25:20;;;;;;;1.00;0.40;;;;;;;;;;7391009;19;20074;-59
2021/10/18 11:28:14;;;;;;;0.40;0.40;;;;;;;;;;7391259;19;20013;-59
2021/10/18 11:30:42;;;;;;;0.30;0.30;;;;;;;;;;7390635;19;20085;-59
2021/10/18 11:33:15;;;;;;;0.30;0.30;;;;;;;;;;7387983;19;20018;-59
2021/10/18 11:35:45;;;;;;;2.03;0.40;;;;;;;;;;7395782;19;20034;-59
2021/10/18 11:38:14;;;;;;;0.45;0.30;;;;;;;;;;7393225;19;20011;-58
2021/10/18 11:40:50;;;;;;;0.30;0.30;;;;;;;;;;7391138;19;20014;-59
2021/10/18 11:43:20;;;;;;;0.32;0.30;;;;;;;;;;7390512;19;20074;-58
2021/10/18 11:45:50;;;;;;;2.35;0.35;;;;;;;;;;7391201;19;20018;-59
2021/10/18 11:48:25;;;;;;;0.20;0.20;;;;;;;;;;7390248;19;20010;-59
2021/10/18 11:50:58;;;;;;;0.30;0.30;;;;;;;;;;7389672;19;20081;-58
2021/10/18 11:53:39;;;;;;;0.52;0.40;;;;;;;;;;7387986;19;20025;-58
2021/10/18 11:56:09;;;;;;;0.45;0.40;;;;;;;;;;7391533;19;20010;-60
2021/10/18 11:58:41;;;;;;;0.77;0.40;;;;;;;;;;7390909;19;20406;-60
2021/10/18 12:01:11;;;;;;;0.38;0.32;;;;;;;;;;7390456;19;20038;-59
2021/10/18 12:03:38;;;;;;;0.38;0.38;;;;;;;;;;7390425;19;20416;-59
2021/10/18 12:06:08;;;;;;;0.30;0.30;;;;;;;;;;7390551;19;20018;-60
2021/10/18 12:08:38;;;;;;;12.18;6.38;;;;;;;;;;7390979;19;20010;-60
2021/10/18 12:11:11;;;;;;;1.02;0.68;;;;;;;;;;7389881;19;20087;-59
2021/10/18 12:13:40;;;;;;;1.95;0.65;;;;;;;;;;7388645;19;20029;-60
2021/10/18 12:16:09;;;;;;;2.40;0.30;;;;;;;;;;7390487;19;20010;-60
2021/10/18 12:18:46;;;;;;;0.50;0.50;;;;;;;;;;7390580;19;20017;-59
2021/10/18 12:21:14;;;;;;;0.32;0.32;;;;;;;;;;7389921;19;20101;-60
2021/10/18 12:23:48;;;;;;;0.30;0.30;;;;;;;;;;7389997;19;20010;-59
2021/10/18 12:26:39;;;;;;;1.15;0.40;;;;;;;;;;7389671;19;20034;-60
2021/10/18 12:29:11;;;;;;;0.30;0.30;;;;;;;;;;7388374;19;20483;-59
2021/10/18 12:31:38;;;;;;;0.50;0.38;;;;;;;;;;7389541;19;20014;-59
2021/10/18 12:34:12;;;;;;;0.28;0.28;;;;;;;;;;7389731;19;20014;-59
2021/10/18 12:37:00;;;;;;;0.20;0.20;;;;;;;;;;7389524;19;20034;-59
2021/10/18 12:39:53;;;;;;;0.30;0.30;;;;;;;;;;7392816;19;20014;-63
2021/10/18 12:42:21;;;;;;;3.65;1.10;;;;;;;;;;7389685;19;20010;-61
2021/10/18 12:44:59;;;;;;;1.08;0.68;;;;;;;;;;7388481;19;20034;-59
2021/10/18 12:47:27;;;;;;;1.38;0.40;;;;;;;;;;7388883;19;20577;-59
2021/10/18 12:50:13;;;;;;;0.40;0.40;;;;;;;;;;7388525;19;20019;-60
2021/10/18 12:52:51;;;;;;;0.40;0.40;;;;;;;;;;7388135;19;20142;-60
2021/10/18 12:55:30;;;;;;;2.17;0.50;;;;;;;;;;7388601;19;20006;-60
2021/10/18 12:58:00;;;;;;;0.40;0.35;;;;;;;;;;7388239;19;20018;-60
2021/10/18 13:00:34;;;;;;;0.30;0.30;;;;;;;;;;7386673;19;20042;-60
2021/10/18 13:03:08;;;;;;;0.52;0.40;;;;;;;;;;7388271;19;20010;-60
2021/10/18 13:05:37;;;;;;;0.40;0.35;;;;;;;;;;7388662;19;20014;-60
2021/10/18 13:08:08;;;;;;;1.00;0.30;;;;;;;;;;7388218;19;20016;-60
2021/10/18 13:10:38;;;;;;;0.55;0.35;;;;;;;;;;7387967;19;20390;-60
2021/10/18 13:13:11;;;;;;;0.40;0.35;;;;;;;;;;7387128;19;20022;-59
2021/10/18 13:15:41;;;;;;;0.90;0.47;;;;;;;;;;7388631;19;20022;-60
2021/10/18 13:18:10;;;;;;;0.57;0.40;;;;;;;;;;7388378;19;20033;-59
2021/10/18 13:20:39;;;;;;;1.10;0.40;;;;;;;;;;7388269;19;20042;-60
2021/10/18 13:23:09;;;;;;;13.25;4.57;;;;;;;;;;7387883;19;20023;-59
2021/10/18 13:25:39;;;;;;;1.67;0.70;;;;;;;;;;7387929;19;20018;-60
2021/10/18 13:28:09;;;;;;;0.50;0.50;;;;;;;;;;7385305;19;20011;-59
2021/10/18 13:30:38;;;;;;;2.53;0.60;;;;;;;;;;7388223;19;20014;-59
2021/10/18 13:33:06;;;;;;;0.47;0.32;;;;;;;;;;7386251;19;20021;-60
2021/10/18 13:35:33;;;;;;;0.40;0.40;;;;;;;;;;7387309;19;20049;-60
2021/10/18 13:38:02;;;;;;;0.30;0.30;;;;;;;;;;7388248;19;20014;-59
2021/10/18 13:40:34;;;;;;;0.82;0.30;;;;;;;;;;7387376;19;20038;-60
2021/10/18 13:43:02;;;;;;;8.32;4.07;;;;;;;;;;7387393;19;20014;-54
2021/10/18 13:45:30;;;;;;;3.63;1.30;;;;;;;;;;7386877;19;20486;-55
2021/10/18 13:47:59;;;;;;;0.65;0.50;;;;;;;;;;7387203;19;20038;-59
2021/10/18 13:50:26;;;;;;;0.95;0.47;;;;;;;;;;7385433;19;20082;-53
2021/10/18 13:52:56;;;;;;;0.40;0.40;;;;;;;;;;7383675;19;20010;-58
2021/10/18 13:55:25;;;;;;;0.40;0.40;;;;;;;;;;7385631;19;20016;-56
2021/10/18 13:57:54;;;;;;;0.40;0.30;;;;;;;;;;7385442;19;20038;-60
2021/10/18 14:00:22;;;;;;;1.45;0.65;;;;;;;;;;7385607;19;20014;-61
2021/10/18 14:02:50;;;;;;;1.23;0.38;;;;;;;;;;7385883;19;20053;-61
2021/10/18 14:05:18;;;;;;;0.60;0.40;;;;;;;;;;7386920;19;20013;-60
2021/10/18 14:07:45;;;;;;;0.40;0.40;;;;;;;;;;7386841;19;20010;-59
2021/10/18 14:10:15;;;;;;;0.55;0.40;;;;;;;;;;7386296;19;20018;-60
2021/10/18 14:12:44;;;;;;;0.98;0.43;;;;;;;;;;7387003;19;20469;-61
2021/10/18 14:15:12;;;;;;;0.63;0.40;;;;;;;;;;7393927;19;20026;-61
2021/10/18 14:17:40;;;;;;;0.50;0.50;;;;;;;;;;7394297;19;20041;-61
2021/10/18 14:20:08;;;;;;;0.55;0.40;;;;;;;;;;7393261;19;20014;-59
2021/10/18 14:22:36;;;;;;;1.15;0.45;;;;;;;;;;7393496;19;20034;-60
2021/10/18 14:25:06;;;;;;;0.57;0.45;;;;;;;;;;7393680;19;20015;-61
2021/10/18 14:27:34;;;;;;;0.98;0.60;;;;;;;;;;7393610;19;20011;-63
2021/10/18 14:30:06;;;;;;;0.40;0.30;;;;;;;;;;7392882;19;20032;-61
2021/10/18 14:32:33;;;;;;;0.40;0.40;;;;;;;;;;7392196;19;20018;-62
2021/10/18 14:35:01;;;;;;;0.73;0.50;;;;;;;;;;7392960;19;20514;-62
2021/10/18 14:37:28;;;;;;;0.45;0.45;;;;;;;;;;7393329;19;20013;-61
2021/10/18 14:39:56;;;;;;;0.85;0.70;;;;;;;;;;7392264;19;20011;-60
2021/10/18 14:42:23;;;;;;;0.57;0.43;;;;;;;;;;7392486;19;20014;-60
2021/10/18 14:44:50;;;;;;;63.28;28.00;;;;;;;;;;7392717;19;20500;-65
2021/10/18 14:47:18;;;;;;;2.97;1.40;;;;;;;;;;7392140;19;20017;-60
2021/10/18 14:49:45;;;;;;;0.65;0.50;;;;;;;;;;7392817;19;20010;-61
2021/10/18 14:52:15;;;;;;;1.98;0.43;;;;;;;;;;7392536;19;20022;-60
2021/10/18 14:54:42;;;;;;;0.88;0.60;;;;;;;;;;7392990;19;20359;-61
2021/10/18 14:57:10;;;;;;;2.42;0.60;;;;;;;;;;7392576;19;20014;-60
2021/10/18 14:59:37;;;;;;;0.40;0.40;;;;;;;;;;7392549;19;20026;-60
2021/10/18 15:02:04;;;;;;;0.40;0.40;;;;;;;;;;7391183;19;20047;-60
2021/10/18 15:04:32;;;;;;;0.40;0.40;;;;;;;;;;7391707;19;20011;-60
2021/10/18 15:07:00;;;;;;;0.57;0.45;;;;;;;;;;7392116;19;20022;-61
2021/10/18 15:09:27;;;;;;;81.68;32.45;;;;;;;;;;7391792;19;20018;-59
2021/10/18 15:11:56;;;;;;;5.68;2.28;;;;;;;;;;7392302;19;20107;-61
2021/10/18 15:14:23;;;;;;;2.38;0.52;;;;;;;;;;7388437;19;20016;-60
2021/10/18 15:16:51;;;;;;;1.58;0.63;;;;;;;;;;7391809;19;20018;-61
2021/10/18 15:19:18;;;;;;;0.55;0.55;;;;;;;;;;7391395;19;20098;-60
2021/10/18 15:21:46;;;;;;;0.63;0.55;;;;;;;;;;7389925;19;20022;-61
2021/10/18 15:24:15;;;;;;;1.17;0.65;;;;;;;;;;7390260;19;20051;-61
2021/10/18 15:26:43;;;;;;;0.68;0.50;;;;;;;;;;7392419;19;20102;-60
2021/10/18 15:29:10;;;;;;;0.50;0.50;;;;;;;;;;7392425;19;20014;-60
2021/10/18 15:31:39;;;;;;;198.73;72.13;;;;;;;;;;7391642;19;20017;-59
2021/10/18 15:34:06;;;;;;;2.13;1.00;;;;;;;;;;7389479;19;20014;-61
2021/10/18 15:36:34;;;;;;;0.98;0.70;;;;;;;;;;7390614;19;20021;-61
2021/10/18 15:39:03;;;;;;;0.82;0.47;;;;;;;;;;7394316;19;20065;-60
2021/10/18 15:41:32;;;;;;;0.50;0.50;;;;;;;;;;7391119;19;20014;-61
2021/10/18 15:44:05;;;;;;;0.50;0.50;;;;;;;;;;7390888;19;20018;-60
2021/10/18 15:46:34;;;;;;;0.40;0.40;;;;;;;;;;7391274;19;20047;-60
2021/10/18 15:49:03;;;;;;;0.40;0.40;;;;;;;;;;7390390;19;20538;-60
2021/10/18 15:51:30;;;;;;;0.43;0.40;;;;;;;;;;7389204;19;20011;-60
2021/10/18 15:53:58;;;;;;;0.52;0.40;;;;;;;;;;7389232;19;20017;-60
2021/10/18 15:56:25;;;;;;;0.45;0.45;;;;;;;;;;7390823;19;20027;-59
2021/10/18 15:58:53;;;;;;;16.42;5.68;;;;;;;;;;7390649;19;20014;-60
2021/10/18 16:01:20;;;;;;;1.10;0.60;;;;;;;;;;7390233;19;20011;-60
2021/10/18 16:03:47;;;;;;;1.70;0.60;;;;;;;;;;7390141;19;20014;-61
2021/10/18 16:06:15;;;;;;;0.73;0.50;;;;;;;;;;7387944;19;20518;-61
2021/10/18 16:08:42;;;;;;;2.85;0.70;;;;;;;;;;7386398;19;20093;-61
2021/10/18 16:11:10;;;;;;;1.00;0.50;;;;;;;;;;7385846;19;20017;-61
2021/10/18 16:13:40;;;;;;;1.25;0.50;;;;;;;;;;7386412;19;20018;-60
2021/10/18 16:16:09;;;;;;;0.85;0.50;;;;;;;;;;7387190;19;20018;-60
2021/10/18 16:18:36;;;;;;;1.95;0.47;;;;;;;;;;7389811;19;20519;-61
2021/10/18 16:21:04;;;;;;;1.42;0.57;;;;;;;;;;7389855;19;20374;-61
2021/10/18 16:23:31;;;;;;;0.93;0.47;;;;;;;;;;7389644;19;20015;-61
2021/10/18 16:25:59;;;;;;;1.40;0.77;;;;;;;;;;7389422;19;20034;-60
2021/10/18 16:28:26;;;;;;;1.75;0.85;;;;;;;;;;7389976;19;20018;-61
2021/10/18 16:30:54;;;;;;;0.60;0.50;;;;;;;;;;7389181;19;20015;-61
2021/10/18 16:33:22;;;;;;;0.90;0.50;;;;;;;;;;7388045;19;20018;-61
2021/10/18 16:35:49;;;;;;;0.40;0.40;;;;;;;;;;7388174;19;20018;-60
2021/10/18 16:38:18;;;;;;;1.88;0.47;;;;;;;;;;7391276;19;20229;-61
2021/10/18 16:40:47;;;;;;;1.35;0.40;;;;;;;;;;7389080;19;20090;-62
2021/10/18 16:43:14;;;;;;;0.40;0.40;;;;;;;;;;7388474;19;20018;-61
2021/10/18 16:45:42;;;;;;;1.17;0.63;;;;;;;;;;7389592;19;20018;-61
2021/10/18 16:48:09;;;;;;;1.77;0.50;;;;;;;;;;7389541;19;20021;-62
2021/10/18 16:50:36;;;;;;;20.42;8.45;;;;;;;;;;7387796;19;20050;-65
2021/10/18 16:53:05;;;;;;;2.65;1.20;;;;;;;;;;7388852;19;20014;-61
2021/10/18 16:55:32;;;;;;;0.95;0.60;;;;;;;;;;7388333;19;20493;-61
2021/10/18 16:58:00;;;;;;;1.63;0.60;;;;;;;;;;7388507;19;20021;-61
2021/10/18 17:00:28;;;;;;;1.10;0.68;;;;;;;;;;7388216;19;20009;-61
2021/10/18 17:02:55;;;;;;;1.30;0.52;;;;;;;;;;7388680;19;20031;-61
2021/10/18 17:05:35;;;;;;;0.45;0.35;;;;;;;;;;7388303;19;20459;-61
2021/10/18 17:08:06;;;;;;;1.80;0.50;;;;;;;;;;7388513;19;20022;-61
2021/10/18 17:10:34;;;;;;;0.65;0.52;;;;;;;;;;7386395;19;20137;-61
2021/10/18 17:13:02;;;;;;;1.05;0.47;;;;;;;;;;7387684;19;20028;-61
2021/10/18 17:15:32;;;;;;;1.10;0.60;;;;;;;;;;7387944;19;20038;-60
2021/10/18 17:17:59;;;;;;;0.47;0.47;;;;;;;;;;7388002;19;20021;-60
2021/10/18 17:20:27;;;;;;;1.08;0.52;;;;;;;;;;7387636;19;20002;-61
2021/10/18 17:22:57;;;;;;;1.15;0.40;;;;;;;;;;7387461;19;20014;-61
2021/10/18 17:25:25;;;;;;;1.00;0.40;;;;;;;;;;7387384;19;20471;-61
2021/10/18 17:27:52;;;;;;;0.68;0.50;;;;;;;;;;7386821;19;20021;-61
2021/10/18 17:30:19;;;;;;;0.75;0.45;;;;;;;;;;7387428;19;20015;-61
2021/10/18 17:32:47;;;;;;;1.42;0.50;;;;;;;;;;7385252;19;20077;-60
2021/10/18 17:35:14;;;;;;;1.52;0.50;;;;;;;;;;7387042;19;20010;-60
2021/10/18 17:37:42;;;;;;;0.85;0.52;;;;;;;;;;7388304;19;20097;-61
2021/10/18 17:40:11;;;;;;;1.30;0.32;;;;;;;;;;7387271;19;20036;-60
2021/10/18 17:42:38;;;;;;;26.50;8.30;;;;;;;;;;7387638;19;20034;-61
2021/10/18 17:45:06;;;;;;;2.38;1.15;;;;;;;;;;7385180;19;20455;-60
2021/10/18 17:47:40;;;;;;;0.70;0.40;;;;;;;;;;7387236;19;20018;-60
2021/10/18 17:50:08;;;;;;;1.20;0.57;;;;;;;;;;7386251;19;21398;-60
2021/10/18 17:52:36;;;;;;;0.65;0.47;;;;;;;;;;7386739;19;20014;-60
2021/10/18 17:55:04;;;;;;;0.40;0.40;;;;;;;;;;7384553;19;20018;-60
2021/10/18 17:57:32;;;;;;;1.00;0.45;;;;;;;;;;7386020;19;20015;-60
2021/10/18 18:00:00;;;;;;;0.75;0.50;;;;;;;;;;7386533;19;20034;-60
2021/10/18 18:02:41;;;;;;;1.25;0.80;;;;;;;;;;7386810;19;20011;-60
2021/10/18 18:05:13;;;;;;;0.50;0.50;;;;;;;;;;7386828;19;20058;-61
2021/10/18 18:07:40;;;;;;;0.50;0.40;;;;;;;;;;7386624;19;20107;-60
2021/10/18 18:10:08;;;;;;;0.30;0.30;;;;;;;;;;7386491;19;20015;-61
2021/10/18 18:12:37;;;;;;;1.33;0.40;;;;;;;;;;7386273;19;20010;-60
2021/10/18 18:15:06;;;;;;;0.57;0.40;;;;;;;;;;7384157;19;20015;-62
2021/10/18 18:17:34;;;;;;;15.27;4.63;;;;;;;;;;7386484;19;20015;-60
2021/10/18 18:20:06;;;;;;;5.07;1.50;;;;;;;;;;7386336;19;20049;-59
2021/10/18 18:22:37;;;;;;;24.00;8.63;;;;;;;;;;7386349;19;20021;-59
2021/10/18 18:25:07;;;;;;;3.78;1.20;;;;;;;;;;7386494;19;20019;-60
2021/10/18 18:27:35;;;;;;;0.82;0.50;;;;;;;;;;7386322;19;20035;-60
2021/10/18 18:30:03;;;;;;;3.67;0.50;;;;;;;;;;7385859;19;20497;-61
2021/10/18 18:32:30;;;;;;;1.58;0.50;;;;;;;;;;7383449;19;20036;-60
2021/10/18 18:34:57;;;;;;;2.47;0.50;;;;;;;;;;7384157;19;20033;-60
2021/10/18 18:37:25;;;;;;;0.70;0.55;;;;;;;;;;7386361;19;20863;-60
2021/10/18 18:39:53;;;;;;;0.50;0.30;;;;;;;;;;7385743;19;20026;-60
2021/10/18 18:42:21;;;;;;;0.63;0.40;;;;;;;;;;7386017;19;20014;-60
2021/10/18 18:44:48;;;;;;;0.32;0.32;;;;;;;;;;7385693;19;20034;-60
2021/10/18 18:47:16;;;;;;;0.55;0.55;;;;;;;;;;7385358;19;20010;-60
2021/10/18 18:49:43;;;;;;;3.15;1.20;;;;;;;;;;7384840;19;20035;-61
2021/10/18 18:52:10;;;;;;;1.85;0.75;;;;;;;;;;7382323;19;20025;-60
2021/10/18 18:54:38;;;;;;;3.03;0.80;;;;;;;;;;7383748;19;20014;-60
2021/10/18 18:57:05;;;;;;;1.35;0.60;;;;;;;;;;7385399;19;20011;-60
2021/10/18 18:59:33;;;;;;;0.95;0.85;;;;;;;;;;7388593;19;20046;-60
2021/10/18 19:02:01;;;;;;;1.25;0.70;;;;;;;;;;7391977;19;20015;-61
2021/10/18 19:04:29;;;;;;;0.40;0.40;;;;;;;;;;7392230;19;20014;-60
2021/10/18 19:06:58;;;;;;;0.60;0.50;;;;;;;;;;7391938;19;20507;-60
2021/10/18 19:09:25;;;;;;;0.80;0.60;;;;;;;;;;7391995;19;20018;-61
2021/10/18 19:11:53;;;;;;;1.85;0.60;;;;;;;;;;7393025;19;20022;-60
2021/10/18 19:14:21;;;;;;;1.05;0.68;;;;;;;;;;7390714;19;20086;-60
2021/10/18 19:16:48;;;;;;;1.58;0.70;;;;;;;;;;7391900;19;20049;-60
2021/10/18 19:19:20;;;;;;;2.25;0.55;;;;;;;;;;7392112;19;20022;-60
2021/10/18 19:21:48;;;;;;;4.78;0.70;;;;;;;;;;7391456;19;20015;-61
2021/10/18 19:24:16;;;;;;;1.40;0.68;;;;;;;;;;7391287;19;20025;-60
2021/10/18 19:26:45;;;;;;;1.88;0.47;;;;;;;;;;7392093;19;20786;-61
2021/10/18 19:29:12;;;;;;;0.50;0.40;;;;;;;;;;7391395;19;20015;-60
2021/10/18 19:31:42;;;;;;;0.43;0.43;;;;;;;;;;7392157;19;20034;-61
2021/10/18 19:34:11;;;;;;;2.05;0.63;;;;;;;;;;7390588;19;20018;-60
2021/10/18 19:36:42;;;;;;;1.00;0.65;;;;;;;;;;7391129;19;20021;-61
2021/10/18 19:39:10;;;;;;;121.35;40.80;;;;;;;;;;7392386;19;20035;-61
2021/10/18 19:41:38;;;;;;;22.08;8.15;;;;;;;;;;7390940;19;20007;-61
2021/10/18 19:44:06;;;;;;;39.45;12.60;;;;;;;;;;7390593;19;20018;-60
2021/10/18 19:46:35;;;;;;;4.35;1.15;;;;;;;;;;7390533;19;20042;-61
2021/10/18 19:49:05;;;;;;;3.05;0.50;;;;;;;;;;7390708;19;20776;-60
2021/10/18 19:51:33;;;;;;;1.58;0.50;;;;;;;;;;7388860;19;20022;-60
2021/10/18 19:54:01;;;;;;;1.92;0.50;;;;;;;;;;7390061;19;20052;-60
2021/10/18 19:56:29;;;;;;;0.57;0.45;;;;;;;;;;7389707;19;20046;-62
2021/10/18 19:58:56;;;;;;;0.73;0.60;;;;;;;;;;7390630;19;20011;-61
2021/10/18 20:01:24;;;;;;;2.65;0.60;;;;;;;;;;7389978;19;20086;-61
2021/10/18 20:03:53;;;;;;;1.02;0.50;;;;;;;;;;7389939;19;20046;-60
2021/10/18 20:06:21;;;;;;;2.05;0.50;;;;;;;;;;7390414;19;20018;-61
2021/10/18 20:08:52;;;;;;;1.45;0.60;;;;;;;;;;7390644;19;20046;-61
2021/10/18 20:11:22;;;;;;;2.22;0.80;;;;;;;;;;7390192;19;20017;-61
2021/10/18 20:13:51;;;;;;;0.73;0.47;;;;;;;;;;7387087;19;20392;-61
2021/10/18 20:16:18;;;;;;;1.00;0.60;;;;;;;;;;7388832;19;20006;-61
2021/10/18 20:18:46;;;;;;;4.85;0.60;;;;;;;;;;7388841;19;20033;-62
2021/10/18 20:21:15;;;;;;;1.02;0.43;;;;;;;;;;7387484;19;20022;-61
2021/10/18 20:23:43;;;;;;;2.58;2.38;;;;;;;;;;7388087;19;20037;-60
2021/10/18 20:26:10;;;;;;;31.88;11.68;;;;;;;;;;7389858;19;20014;-61
2021/10/18 20:28:38;;;;;;;58.40;18.88;;;;;;;;;;7389671;19;20038;-60
2021/10/18 20:31:06;;;;;;;5.55;2.28;;;;;;;;;;7389199;19;20030;-61
2021/10/18 20:33:33;;;;;;;2.50;0.85;;;;;;;;;;7388507;19;20102;-60
2021/10/18 20:36:01;;;;;;;1.27;0.70;;;;;;;;;;7388798;19;20014;-60
2021/10/18 20:38:28;;;;;;;2.88;0.60;;;;;;;;;;7390999;19;20451;-61
2021/10/18 20:40:56;;;;;;;1.48;0.60;;;;;;;;;;7386482;19;20042;-60
2021/10/18 20:43:25;;;;;;;1.85;0.60;;;;;;;;;;7387473;19;20022;-61
2021/10/18 20:45:53;;;;;;;2.50;0.70;;;;;;;;;;7387600;19;20518;-60
2021/10/18 20:48:21;;;;;;;0.47;0.43;;;;;;;;;;7386911;19;20038;-61
2021/10/18 20:50:51;;;;;;;4.25;0.50;;;;;;;;;;7387369;19;20022;-61
2021/10/18 20:53:18;;;;;;;1.02;0.60;;;;;;;;;;7387610;19;20073;-61
2021/10/18 20:55:45;;;;;;;2.42;0.60;;;;;;;;;;7386900;19;20390;-61
2021/10/18 20:58:13;;;;;;;1.05;0.60;;;;;;;;;;7391856;19;20475;-60
2021/10/18 21:00:44;;;;;;;1.77;0.40;;;;;;;;;;7390465;19;20038;-60
2021/10/18 21:03:11;;;;;;;0.68;0.50;;;;;;;;;;7387318;19;20010;-61
2021/10/18 21:05:39;;;;;;;0.70;0.60;;;;;;;;;;7388367;19;20021;-61
2021/10/18 21:08:08;;;;;;;0.70;0.57;;;;;;;;;;7387135;19;20018;-60
2021/10/18 21:10:36;;;;;;;2.58;0.95;;;;;;;;;;7388135;19;20515;-60
2021/10/18 21:13:04;;;;;;;0.85;0.50;;;;;;;;;;7388262;19;20096;-60
2021/10/18 21:15:32;;;;;;;0.93;0.63;;;;;;;;;;7384187;19;20087;-61
2021/10/18 21:17:59;;;;;;;1.58;0.47;;;;;;;;;;7388087;19;20022;-61
2021/10/18 21:20:28;;;;;;;3.80;0.98;;;;;;;;;;7387033;19;20097;-60
2021/10/18 21:22:57;;;;;;;1.63;1.05;;;;;;;;;;7387332;19;20011;-61
2021/10/18 21:25:25;;;;;;;0.57;0.50;;;;;;;;;;7387448;19;20530;-60
2021/10/18 21:27:53;;;;;;;1.02;0.50;;;;;;;;;;7387365;19;20014;-61
2021/10/18 21:30:23;;;;;;;1.80;0.50;;;;;;;;;;7386831;19;20047;-60
2021/10/18 21:32:52;;;;;;;0.60;0.50;;;;;;;;;;7387245;19;20085;-60
2021/10/18 21:35:22;;;;;;;0.88;0.65;;;;;;;;;;7385267;19;20014;-60
2021/10/18 21:37:50;;;;;;;0.80;0.60;;;;;;;;;;7387947;19;20025;-60
2021/10/18 21:40:21;;;;;;;1.92;0.50;;;;;;;;;;7387159;19;20039;-60
2021/10/18 21:42:48;;;;;;;1.40;0.70;;;;;;;;;;7386886;19;20613;-60
2021/10/18 21:45:19;;;;;;;2.55;0.57;;;;;;;;;;7386966;19;20025;-60
2021/10/18 21:47:47;;;;;;;1.85;0.50;;;;;;;;;;7387223;19;20011;-60
2021/10/18 21:50:15;;;;;;;0.40;0.40;;;;;;;;;;7385116;19;20078;-60
2021/10/18 21:52:43;;;;;;;0.65;0.50;;;;;;;;;;7387145;19;20017;-60
2021/10/18 21:55:11;;;;;;;0.82;0.70;;;;;;;;;;7385918;19;20528;-60
2021/10/18 21:57:40;;;;;;;1.67;0.50;;;;;;;;;;7387388;19;20019;-61